Time;durP1;ratioP1;P1;durP2;ratioP2;P2;SDS_P1;SDS_P2;PMS_P1;PMS_P2;Temp;Humidity;BMP_temperature;BMP_pressure;BME280_temperature;BME280_humidity;BME280_pressure;Samples;Min_cycle;Max_cycle;Signal;HPM_P1;HPM_P2
2023/08/30 00:02:17;;;;;;;;;20.00;20.00;;;;;;;;5063536;28;45371;-75
2023/08/30 00:04:42;;;;;;;;;20.67;19.00;;;;;;;;5063389;28;46660;-75
2023/08/30 00:07:07;;;;;;;;;23.67;21.00;;;;;;;;5081546;28;46371;-75
2023/08/30 00:09:32;;;;;;;;;19.00;18.00;;;;;;;;5081534;28;45456;-74
2023/08/30 00:11:58;;;;;;;;;21.00;21.00;;;;;;;;5081647;28;45488;-74
2023/08/30 00:14:23;;;;;;;;;20.00;20.00;;;;;;;;5081536;28;45539;-75
2023/08/30 00:16:48;;;;;;;;;21.00;21.00;;;;;;;;5081645;28;45289;-74
2023/08/30 00:19:13;;;;;;;;;20.00;20.00;;;;;;;;5081574;28;45571;-74
2023/08/30 00:21:38;;;;;;;;;16.00;16.00;;;;;;;;5062866;28;45332;-75
2023/08/30 00:24:04;;;;;;;;;18.33;18.33;;;;;;;;5081141;28;45462;-72
2023/08/30 00:26:29;;;;;;;;;19.33;17.33;;;;;;;;5080973;28;45319;-74
2023/08/30 00:28:54;;;;;;;;;18.00;18.00;;;;;;;;5085594;27;45325;-75
2023/08/30 00:31:19;;;;;;;;;18.33;16.67;;;;;;;;5083194;27;45244;-74
2023/08/30 00:33:45;;;;;;;;;18.67;17.33;;;;;;;;5101662;27;45544;-74
2023/08/30 00:36:10;;;;;;;;;18.67;18.67;;;;;;;;5101609;27;46126;-74
2023/08/30 00:38:35;;;;;;;;;20.33;20.33;;;;;;;;5101772;27;45302;-75
2023/08/30 00:41:00;;;;;;;;;21.00;21.00;;;;;;;;5101731;27;45331;-75
2023/08/30 00:43:25;;;;;;;;;18.00;17.67;;;;;;;;5082852;27;47121;-74
2023/08/30 00:45:51;;;;;;;;;18.33;16.67;;;;;;;;5101558;27;45259;-75
2023/08/30 00:48:18;;;;;;;;;19.00;17.33;;;;;;;;5101625;27;45180;-75
2023/08/30 00:50:43;;;;;;;;;18.00;18.00;;;;;;;;5101188;27;45293;-74
2023/08/30 00:53:09;;;;;;;;;16.00;14.67;;;;;;;;5101437;27;45301;-75
2023/08/30 00:55:34;;;;;;;;;16.67;16.00;;;;;;;;5101136;27;45232;-75
2023/08/30 00:58:00;;;;;;;;;17.00;16.00;;;;;;;;5082792;27;45268;-74
2023/08/30 01:00:27;;;;;;;;;17.00;16.67;;;;;;;;5101510;27;45373;-75
2023/08/30 01:02:52;;;;;;;;;17.00;16.33;;;;;;;;5101237;27;45502;-75
2023/08/30 01:05:17;;;;;;;;;17.00;17.00;;;;;;;;5101031;27;45342;-75
2023/08/30 01:07:43;;;;;;;;;16.00;16.00;;;;;;;;5101219;27;45332;-75
2023/08/30 01:10:10;;;;;;;;;16.67;16.67;;;;;;;;5082935;27;45323;-74
2023/08/30 01:13:02;;;;;;;;;16.00;16.00;;;;;;;;5082494;27;45463;-74
2023/08/30 01:15:27;;;;;;;;;18.00;18.00;;;;;;;;5077632;27;46535;-75
2023/08/30 01:17:53;;;;;;;;;14.67;14.67;;;;;;;;5082540;27;45319;-74
2023/08/30 01:20:20;;;;;;;;;17.67;16.67;;;;;;;;5101117;27;45292;-74
2023/08/30 01:22:48;;;;;;;;;19.67;17.00;;;;;;;;5101073;27;45299;-75
2023/08/30 01:25:16;;;;;;;;;16.67;15.33;;;;;;;;5100770;27;45657;-74
2023/08/30 01:27:45;;;;;;;;;17.33;17.00;;;;;;;;5100701;27;45377;-75
2023/08/30 01:30:11;;;;;;;;;19.67;17.00;;;;;;;;5066396;28;45313;-75
2023/08/30 01:32:37;;;;;;;;;19.67;16.67;;;;;;;;5080379;28;45231;-74
2023/08/30 01:35:03;;;;;;;;;16.33;16.33;;;;;;;;5080186;28;45253;-75
2023/08/30 01:37:29;;;;;;;;;14.33;14.33;;;;;;;;5080191;28;45361;-74
2023/08/30 01:39:56;;;;;;;;;18.67;16.00;;;;;;;;5078204;28;45401;-75
2023/08/30 01:42:22;;;;;;;;;17.33;16.00;;;;;;;;5079402;28;45257;-74
2023/08/30 01:44:48;;;;;;;;;17.67;17.67;;;;;;;;5080105;28;45795;-74
2023/08/30 01:47:15;;;;;;;;;17.33;17.33;;;;;;;;5080259;28;45393;-74
2023/08/30 01:49:40;;;;;;;;;15.33;15.33;;;;;;;;5062097;28;45280;-75
2023/08/30 01:52:06;;;;;;;;;16.00;15.67;;;;;;;;5079832;28;45148;-74
2023/08/30 01:54:31;;;;;;;;;21.33;18.67;;;;;;;;5079917;28;45228;-74
2023/08/30 01:56:58;;;;;;;;;19.33;19.33;;;;;;;;5061560;28;45305;-74
2023/08/30 01:59:23;;;;;;;;;10.33;10.33;;;;;;;;5062011;28;45261;-75
2023/08/30 02:01:48;;;;;;;;;17.67;17.67;;;;;;;;5079961;28;45262;-74
2023/08/30 02:04:13;;;;;;;;;20.00;20.00;;;;;;;;5079666;28;45295;-74
2023/08/30 02:06:42;;;;;;;;;18.33;18.33;;;;;;;;5061565;28;45249;-74
2023/08/30 02:09:17;;;;;;;;;18.67;18.00;;;;;;;;5061868;28;45299;-75
2023/08/30 02:11:43;;;;;;;;;18.00;18.00;;;;;;;;5079471;28;45329;-74
2023/08/30 02:14:10;;;;;;;;;19.67;19.00;;;;;;;;5079674;28;46406;-75
2023/08/30 02:16:36;;;;;;;;;19.00;18.33;;;;;;;;5061425;28;45455;-74
2023/08/30 02:19:01;;;;;;;;;18.33;17.67;;;;;;;;5079835;28;45453;-74
2023/08/30 02:21:27;;;;;;;;;16.33;15.33;;;;;;;;5061128;28;45849;-74
2023/08/30 02:23:52;;;;;;;;;19.67;18.00;;;;;;;;5079728;28;45886;-74
2023/08/30 02:26:20;;;;;;;;;16.33;16.00;;;;;;;;5079694;28;45273;-74
2023/08/30 02:28:45;;;;;;;;;16.00;16.00;;;;;;;;5083622;27;45303;-74
2023/08/30 02:31:11;;;;;;;;;20.67;18.67;;;;;;;;5099897;27;45365;-75
2023/08/30 02:33:37;;;;;;;;;18.33;18.33;;;;;;;;5099935;27;46559;-74
2023/08/30 02:36:02;;;;;;;;;19.33;18.00;;;;;;;;5099959;27;45444;-74
2023/08/30 02:38:27;;;;;;;;;16.00;15.67;;;;;;;;5099983;27;45462;-74
2023/08/30 02:40:53;;;;;;;;;17.33;16.33;;;;;;;;5099850;27;45303;-74
2023/08/30 02:43:18;;;;;;;;;19.67;16.67;;;;;;;;5099628;27;46443;-74
2023/08/30 02:45:43;;;;;;;;;15.00;13.33;;;;;;;;5099890;27;45330;-75
2023/08/30 02:48:08;;;;;;;;;15.00;14.33;;;;;;;;5100007;27;45336;-74
2023/08/30 02:50:33;;;;;;;;;16.00;15.33;;;;;;;;5099689;27;45307;-74
2023/08/30 02:52:58;;;;;;;;;15.33;15.33;;;;;;;;5102708;27;46177;-75
2023/08/30 02:55:24;;;;;;;;;17.67;16.00;;;;;;;;5103349;27;45346;-74
2023/08/30 02:57:49;;;;;;;;;17.67;14.00;;;;;;;;5103391;27;45541;-75
2023/08/30 03:00:14;;;;;;;;;14.00;14.00;;;;;;;;5103265;27;45357;-74
2023/08/30 03:02:40;;;;;;;;;14.67;14.00;;;;;;;;5103207;27;46197;-75
2023/08/30 03:05:05;;;;;;;;;13.33;13.00;;;;;;;;5103114;27;45292;-74
2023/08/30 03:07:30;;;;;;;;;13.33;13.33;;;;;;;;5103242;27;45224;-75
2023/08/30 03:09:55;;;;;;;;;15.67;13.67;;;;;;;;5103108;27;45230;-74
2023/08/30 03:12:20;;;;;;;;;14.00;14.00;;;;;;;;5102848;27;46313;-74
2023/08/30 03:14:46;;;;;;;;;15.67;15.00;;;;;;;;5102939;27;45227;-74
2023/08/30 03:17:11;;;;;;;;;13.33;13.33;;;;;;;;5103250;27;45373;-75
2023/08/30 03:19:36;;;;;;;;;13.67;13.00;;;;;;;;5103034;27;45363;-75
2023/08/30 03:22:02;;;;;;;;;17.00;15.33;;;;;;;;5102782;27;46100;-74
2023/08/30 03:24:27;;;;;;;;;14.33;12.67;;;;;;;;5084411;27;45334;-75
2023/08/30 03:26:52;;;;;;;;;12.67;12.33;;;;;;;;5102967;27;45290;-75
2023/08/30 03:29:17;;;;;;;;;13.67;13.67;;;;;;;;5094375;27;45219;-75
2023/08/30 03:31:45;;;;;;;;;20.67;15.00;;;;;;;;5082147;28;45276;-75
2023/08/30 03:34:11;;;;;;;;;13.33;13.00;;;;;;;;5082280;28;45268;-74
2023/08/30 03:36:37;;;;;;;;;12.67;12.67;;;;;;;;5082239;28;45358;-75
2023/08/30 03:39:02;;;;;;;;;14.33;13.67;;;;;;;;5082211;28;45497;-74
2023/08/30 03:41:27;;;;;;;;;12.67;12.67;;;;;;;;5081653;28;45921;-75
2023/08/30 03:43:53;;;;;;;;;15.00;13.67;;;;;;;;5082052;28;45398;-74
2023/08/30 03:46:18;;;;;;;;;14.67;13.00;;;;;;;;5082383;28;45434;-75
2023/08/30 03:48:43;;;;;;;;;15.33;13.00;;;;;;;;5082081;28;45485;-74
2023/08/30 03:51:08;;;;;;;;;15.00;13.33;;;;;;;;5081856;28;45551;-75
2023/08/30 03:53:33;;;;;;;;;14.00;13.00;;;;;;;;5082072;28;45383;-75
2023/08/30 03:55:59;;;;;;;;;13.00;13.00;;;;;;;;5063652;28;45300;-74
2023/08/30 03:58:24;;;;;;;;;13.67;13.67;;;;;;;;5081587;28;45867;-74
2023/08/30 04:00:50;;;;;;;;;12.00;12.00;;;;;;;;5081875;28;45306;-74
2023/08/30 04:03:15;;;;;;;;;12.00;12.00;;;;;;;;5080784;28;45356;-74
2023/08/30 04:05:41;;;;;;;;;12.00;12.00;;;;;;;;5081957;28;45326;-74
2023/08/30 04:08:06;;;;;;;;;11.00;11.00;;;;;;;;5081669;28;45304;-74
2023/08/30 04:10:38;;;;;;;;;9.00;9.00;;;;;;;;5081651;28;45267;-74
2023/08/30 04:13:03;;;;;;;;;9.67;9.67;;;;;;;;5081532;28;45389;-74
2023/08/30 04:15:29;;;;;;;;;10.00;8.33;;;;;;;;5063524;28;45358;-75
2023/08/30 04:17:54;;;;;;;;;10.00;10.00;;;;;;;;5081486;28;45375;-75
2023/08/30 04:20:19;;;;;;;;;9.33;8.33;;;;;;;;5081333;28;45565;-75
2023/08/30 04:22:44;;;;;;;;;9.33;8.33;;;;;;;;5063212;28;45324;-75
2023/08/30 04:25:10;;;;;;;;;10.33;10.33;;;;;;;;5081677;28;45337;-74
2023/08/30 04:27:35;;;;;;;;;9.67;9.67;;;;;;;;5081142;28;45267;-75
2023/08/30 04:30:00;;;;;;;;;10.00;9.33;;;;;;;;5095579;27;45216;-74
2023/08/30 04:32:26;;;;;;;;;9.00;9.00;;;;;;;;5086596;27;45161;-74
2023/08/30 04:34:51;;;;;;;;;8.67;8.67;;;;;;;;5062877;28;45547;-74
2023/08/30 04:37:16;;;;;;;;;8.67;8.67;;;;;;;;5080838;28;45202;-75
2023/08/30 04:39:41;;;;;;;;;9.00;7.33;;;;;;;;5080908;28;45287;-74
2023/08/30 04:42:06;;;;;;;;;9.33;9.33;;;;;;;;5080592;28;45302;-74
2023/08/30 04:44:32;;;;;;;;;8.00;8.00;;;;;;;;5081139;28;45276;-75
2023/08/30 04:46:57;;;;;;;;;7.00;7.00;;;;;;;;5080503;28;45389;-74
2023/08/30 04:49:25;;;;;;;;;8.00;8.00;;;;;;;;5062810;28;48164;-74
2023/08/30 04:51:50;;;;;;;;;7.33;7.33;;;;;;;;5081093;28;45355;-75
2023/08/30 04:54:15;;;;;;;;;9.67;9.33;;;;;;;;5081032;28;45367;-74
2023/08/30 04:56:40;;;;;;;;;10.00;9.33;;;;;;;;5080742;28;45409;-74
2023/08/30 04:59:05;;;;;;;;;8.33;8.33;;;;;;;;5080946;28;45393;-74
2023/08/30 05:01:31;;;;;;;;;8.33;8.00;;;;;;;;5080906;28;45453;-74
2023/08/30 05:03:56;;;;;;;;;8.33;8.00;;;;;;;;5081132;28;45480;-75
2023/08/30 05:06:21;;;;;;;;;9.00;8.67;;;;;;;;5080591;28;45489;-74
2023/08/30 05:08:46;;;;;;;;;7.33;6.00;;;;;;;;5062574;28;47437;-74
2023/08/30 05:11:12;;;;;;;;;9.33;9.33;;;;;;;;5080834;28;45233;-74
2023/08/30 05:13:37;;;;;;;;;9.67;8.00;;;;;;;;5080720;28;45307;-74
2023/08/30 05:16:03;;;;;;;;;8.00;8.00;;;;;;;;5079698;28;45360;-74
2023/08/30 05:18:28;;;;;;;;;9.33;9.00;;;;;;;;5080605;28;45351;-74
2023/08/30 05:20:53;;;;;;;;;5.00;5.00;;;;;;;;5080701;28;45359;-74
2023/08/30 05:23:18;;;;;;;;;8.67;8.67;;;;;;;;5080546;28;45881;-74
2023/08/30 05:25:43;;;;;;;;;9.00;9.00;;;;;;;;5080585;28;45417;-74
2023/08/30 05:28:08;;;;;;;;;9.67;9.67;;;;;;;;5080367;28;46059;-74
2023/08/30 05:30:34;;;;;;;;;8.67;5.67;;;;;;;;5081177;27;45311;-74
2023/08/30 05:32:59;;;;;;;;;9.67;7.00;;;;;;;;5101134;27;45295;-74
2023/08/30 05:35:24;;;;;;;;;8.67;8.67;;;;;;;;5100806;27;45384;-75
2023/08/30 05:37:50;;;;;;;;;7.00;7.00;;;;;;;;5100915;27;46305;-74
2023/08/30 05:40:16;;;;;;;;;10.67;9.00;;;;;;;;5100758;27;45218;-74
2023/08/30 05:42:42;;;;;;;;;7.00;6.33;;;;;;;;5100560;27;45156;-74
2023/08/30 05:45:07;;;;;;;;;7.33;7.33;;;;;;;;5082390;27;46307;-74
2023/08/30 05:47:33;;;;;;;;;6.67;6.67;;;;;;;;5100575;27;45262;-74
2023/08/30 05:49:58;;;;;;;;;8.67;8.33;;;;;;;;5067204;27;45493;-74
2023/08/30 05:52:25;;;;;;;;;7.00;7.00;;;;;;;;5051353;28;45449;-74
2023/08/30 05:54:50;;;;;;;;;7.67;7.33;;;;;;;;5060829;28;45340;-75
2023/08/30 05:57:15;;;;;;;;;8.33;8.33;;;;;;;;5059682;28;45937;-73
2023/08/30 05:59:40;;;;;;;;;7.67;7.67;;;;;;;;5059624;28;45295;-74
2023/08/30 06:02:05;;;;;;;;;7.33;7.33;;;;;;;;5060024;28;45430;-75
2023/08/30 06:04:31;;;;;;;;;10.00;10.00;;;;;;;;5059190;28;45592;-75
2023/08/30 06:06:56;;;;;;;;;9.33;8.33;;;;;;;;5059585;28;45458;-76
2023/08/30 06:09:21;;;;;;;;;6.00;6.00;;;;;;;;5059698;28;45359;-75
2023/08/30 06:11:46;;;;;;;;;9.00;8.00;;;;;;;;5059569;28;45227;-76
2023/08/30 06:14:11;;;;;;;;;10.67;9.00;;;;;;;;5059658;28;45375;-76
2023/08/30 06:16:37;;;;;;;;;6.67;6.33;;;;;;;;5059427;28;46623;-75
2023/08/30 06:19:02;;;;;;;;;8.67;8.67;;;;;;;;5041328;28;45408;-75
2023/08/30 06:21:27;;;;;;;;;8.00;7.33;;;;;;;;5041572;28;45901;-78
2023/08/30 06:23:52;;;;;;;;;8.33;7.33;;;;;;;;5059491;28;45359;-77
2023/08/30 06:26:18;;;;;;;;;7.67;7.67;;;;;;;;5059825;28;46107;-76
2023/08/30 06:28:44;;;;;;;;;9.00;9.00;;;;;;;;5080213;28;45327;-76
2023/08/30 06:31:09;;;;;;;;;7.33;7.33;;;;;;;;5083453;28;45532;-75
2023/08/30 06:33:35;;;;;;;;;10.00;9.00;;;;;;;;5083362;28;45485;-75
2023/08/30 06:36:01;;;;;;;;;8.33;8.33;;;;;;;;5082918;28;46155;-76
2023/08/30 06:38:26;;;;;;;;;8.00;8.00;;;;;;;;5079189;28;45392;-76
2023/08/30 06:40:51;;;;;;;;;9.00;8.67;;;;;;;;5083282;28;45270;-75
2023/08/30 06:43:16;;;;;;;;;9.33;9.33;;;;;;;;5082868;28;45243;-79
2023/08/30 06:45:42;;;;;;;;;9.00;9.00;;;;;;;;5083004;28;45346;-77
2023/08/30 06:48:07;;;;;;;;;9.00;7.33;;;;;;;;5083044;28;45227;-75
2023/08/30 06:50:33;;;;;;;;;9.33;9.00;;;;;;;;5083029;28;45224;-76
2023/08/30 06:52:58;;;;;;;;;8.00;8.00;;;;;;;;5082911;28;45441;-75
2023/08/30 06:55:23;;;;;;;;;8.67;8.00;;;;;;;;5082573;28;46084;-75
2023/08/30 06:57:51;;;;;;;;;8.67;8.00;;;;;;;;5082832;28;45274;-75
2023/08/30 07:00:16;;;;;;;;;10.00;9.67;;;;;;;;5082938;28;45366;-76
2023/08/30 07:02:45;;;;;;;;;10.00;10.00;;;;;;;;5082276;28;45498;-77
2023/08/30 07:05:10;;;;;;;;;9.33;9.33;;;;;;;;5064334;28;48056;-75
2023/08/30 07:07:35;;;;;;;;;9.67;8.00;;;;;;;;5082346;27;45384;-76
2023/08/30 07:10:01;;;;;;;;;11.67;9.67;;;;;;;;5062292;28;45352;-76
2023/08/30 07:12:26;;;;;;;;;10.00;10.00;;;;;;;;5073488;27;45277;-75
2023/08/30 07:14:51;;;;;;;;;9.00;9.00;;;;;;;;5082361;28;45407;-76
2023/08/30 07:17:17;;;;;;;;;10.00;10.00;;;;;;;;5082644;28;45161;-77
2023/08/30 07:19:42;;;;;;;;;10.00;10.00;;;;;;;;5064554;28;45175;-76
2023/08/30 07:22:07;;;;;;;;;10.00;9.33;;;;;;;;5082396;28;45267;-76
2023/08/30 07:24:32;;;;;;;;;6.00;6.00;;;;;;;;5082431;28;45308;-76
2023/08/30 07:26:57;;;;;;;;;9.33;9.33;;;;;;;;5082316;28;45230;-78
2023/08/30 07:29:23;;;;;;;;;10.00;10.00;;;;;;;;5073640;27;45378;-78
2023/08/30 07:31:51;;;;;;;;;11.67;9.67;;;;;;;;5084294;27;45931;-80
2023/08/30 07:34:16;;;;;;;;;9.00;9.00;;;;;;;;5102639;27;45316;-81
2023/08/30 07:36:41;;;;;;;;;11.00;11.00;;;;;;;;5102914;27;45355;-78
2023/08/30 07:39:06;;;;;;;;;12.00;10.67;;;;;;;;5102925;27;45310;-78
2023/08/30 07:41:33;;;;;;;;;10.33;10.00;;;;;;;;5083721;27;47052;-78
2023/08/30 07:43:58;;;;;;;;;11.67;10.00;;;;;;;;5102627;27;45512;-77
2023/08/30 07:46:24;;;;;;;;;11.67;11.67;;;;;;;;5102443;27;45461;-78
2023/08/30 07:48:50;;;;;;;;;11.00;11.00;;;;;;;;5102386;27;45231;-76
2023/08/30 07:51:15;;;;;;;;;8.67;8.67;;;;;;;;5102326;27;45459;-78
2023/08/30 07:53:40;;;;;;;;;4.00;4.00;;;;;;;;5083955;27;47265;-78
2023/08/30 07:56:06;;;;;;;;;10.00;9.00;;;;;;;;5083823;27;45221;-77
2023/08/30 07:58:31;;;;;;;;;9.00;9.00;;;;;;;;5102411;27;45432;-78
2023/08/30 08:00:56;;;;;;;;;9.00;9.00;;;;;;;;5102347;27;45552;-78
2023/08/30 08:03:23;;;;;;;;;10.00;10.00;;;;;;;;5102396;27;46157;-78
2023/08/30 08:05:49;;;;;;;;;7.67;7.67;;;;;;;;5083842;27;45314;-78
2023/08/30 08:08:14;;;;;;;;;11.33;9.67;;;;;;;;5102285;27;45625;-78
2023/08/30 08:10:39;;;;;;;;;8.00;8.00;;;;;;;;5083743;27;47090;-79
2023/08/30 08:13:05;;;;;;;;;8.33;8.33;;;;;;;;5083544;27;47013;-79
2023/08/30 08:15:33;;;;;;;;;6.33;6.33;;;;;;;;5102158;27;45361;-76
2023/08/30 08:17:59;;;;;;;;;9.33;8.67;;;;;;;;5102351;27;45331;-80
2023/08/30 08:20:24;;;;;;;;;9.00;9.00;;;;;;;;5083709;27;46432;-77
2023/08/30 08:22:49;;;;;;;;;6.67;5.33;;;;;;;;5102168;27;45341;-78
2023/08/30 08:25:15;;;;;;;;;6.67;6.00;;;;;;;;5083477;27;45331;-76
2023/08/30 08:27:41;;;;;;;;;7.00;5.00;;;;;;;;5101945;27;45195;-76
2023/08/30 08:30:06;;;;;;;;;7.33;7.00;;;;;;;;5067974;28;45209;-79
2023/08/30 08:32:31;;;;;;;;;6.00;6.00;;;;;;;;5081145;28;45365;-76
2023/08/30 08:34:57;;;;;;;;;6.75;6.75;;;;;;;;5062966;28;45164;-77
2023/08/30 08:37:22;;;;;;;;;5.00;5.00;;;;;;;;5063156;28;45331;-77
2023/08/30 08:39:50;;;;;;;;;9.00;8.00;;;;;;;;5081291;28;45389;-78
2023/08/30 08:42:18;;;;;;;;;4.33;4.33;;;;;;;;5080855;28;46355;-78
2023/08/30 08:44:43;;;;;;;;;5.33;5.33;;;;;;;;5063104;28;45331;-77
2023/08/30 08:47:08;;;;;;;;;4.67;4.67;;;;;;;;5081475;28;45414;-77
2023/08/30 08:49:34;;;;;;;;;5.33;5.00;;;;;;;;5062276;28;45792;-78
2023/08/30 08:51:59;;;;;;;;;6.33;5.00;;;;;;;;5080949;28;45434;-77
2023/08/30 08:54:25;;;;;;;;;3.33;3.33;;;;;;;;5080914;28;45479;-77
2023/08/30 08:56:50;;;;;;;;;4.00;3.67;;;;;;;;5081074;28;45354;-77
2023/08/30 08:59:16;;;;;;;;;3.00;3.00;;;;;;;;5077208;28;45326;-77
2023/08/30 09:01:41;;;;;;;;;6.00;5.00;;;;;;;;5068312;28;45367;-76
2023/08/30 09:04:08;;;;;;;;;3.67;3.67;;;;;;;;5060862;28;45166;-78
2023/08/30 09:06:33;;;;;;;;;4.00;3.33;;;;;;;;5060724;28;45304;-76
2023/08/30 09:08:59;;;;;;;;;6.00;6.00;;;;;;;;5042310;28;46897;-76
2023/08/30 09:11:24;;;;;;;;;6.00;4.50;;;;;;;;5060220;28;45198;-77
2023/08/30 09:13:49;;;;;;;;;5.75;5.75;;;;;;;;5042365;28;45890;-78
2023/08/30 09:16:15;;;;;;;;;4.33;4.00;;;;;;;;5042585;28;45376;-79
2023/08/30 09:18:40;;;;;;;;;3.25;3.25;;;;;;;;5042518;28;46194;-78
2023/08/30 09:21:06;;;;;;;;;4.00;4.00;;;;;;;;5042808;28;47070;-78
2023/08/30 09:23:33;;;;;;;;;4.00;3.67;;;;;;;;5072568;28;45381;-78
2023/08/30 09:25:58;;;;;;;;;4.33;4.00;;;;;;;;5080846;28;45280;-76
2023/08/30 09:28:24;;;;;;;;;3.00;3.00;;;;;;;;5081150;27;45447;-76
2023/08/30 09:30:50;;;;;;;;;3.67;3.67;;;;;;;;5100927;27;45295;-78
2023/08/30 09:33:15;;;;;;;;;4.00;4.00;;;;;;;;5100891;27;45317;-78
2023/08/30 09:35:44;;;;;;;;;3.00;3.00;;;;;;;;5082508;27;45384;-79
2023/08/30 09:38:15;;;;;;;;;2.33;2.33;;;;;;;;5079035;27;46523;-79
2023/08/30 09:40:41;;;;;;;;;2.67;2.67;;;;;;;;5043784;28;47711;-77
2023/08/30 09:43:07;;;;;;;;;4.00;4.00;;;;;;;;5041436;28;45451;-76
2023/08/30 09:45:32;;;;;;;;;3.00;3.00;;;;;;;;5060148;28;45301;-75
2023/08/30 09:48:00;;;;;;;;;5.33;4.67;;;;;;;;5060093;28;45173;-77
2023/08/30 09:50:25;;;;;;;;;4.00;4.00;;;;;;;;5059820;28;45477;-77
2023/08/30 09:52:52;;;;;;;;;3.50;3.00;;;;;;;;5060824;28;45334;-78
2023/08/30 09:55:18;;;;;;;;;4.00;4.00;;;;;;;;5060540;28;45379;-79
2023/08/30 09:57:44;;;;;;;;;5.00;4.67;;;;;;;;5060453;28;45324;-80
2023/08/30 10:00:12;;;;;;;;;3.00;3.00;;;;;;;;5061636;28;46595;-77
2023/08/30 10:02:37;;;;;;;;;3.50;3.50;;;;;;;;5060325;28;45169;-79
2023/08/30 10:05:02;;;;;;;;;5.25;4.75;;;;;;;;5042639;28;45281;-79
2023/08/30 10:07:28;;;;;;;;;3.50;3.50;;;;;;;;5060213;28;45260;-80
2023/08/30 10:09:53;;;;;;;;;5.25;4.00;;;;;;;;5060217;28;45557;-79
2023/08/30 10:12:20;;;;;;;;;5.25;4.25;;;;;;;;5050282;28;45170;-78
2023/08/30 10:14:45;;;;;;;;;2.75;1.50;;;;;;;;5061596;28;45517;-78
2023/08/30 10:17:12;;;;;;;;;2.00;2.00;;;;;;;;5080098;28;45540;-78
2023/08/30 10:19:37;;;;;;;;;2.50;2.50;;;;;;;;5079998;28;46212;-79
2023/08/30 10:22:04;;;;;;;;;4.75;3.50;;;;;;;;5061310;28;46129;-77
2023/08/30 10:24:31;;;;;;;;;4.75;3.75;;;;;;;;5079954;28;45390;-80
2023/08/30 10:26:57;;;;;;;;;5.00;5.00;;;;;;;;5079520;28;45383;-78
2023/08/30 10:29:23;;;;;;;;;2.75;2.75;;;;;;;;5088563;27;45959;-77
2023/08/30 10:31:48;;;;;;;;;4.50;4.50;;;;;;;;5100009;27;45290;-78
2023/08/30 10:34:16;;;;;;;;;3.50;3.50;;;;;;;;5100102;27;45181;-77
2023/08/30 10:36:41;;;;;;;;;3.75;3.75;;;;;;;;5099960;27;45343;-75
2023/08/30 10:39:11;;;;;;;;;3.00;3.00;;;;;;;;5099994;27;45387;-77
2023/08/30 10:41:36;;;;;;;;;4.75;4.75;;;;;;;;5085684;27;45201;-75
2023/08/30 10:44:01;;;;;;;;;2.25;2.25;;;;;;;;5079220;28;45315;-75
2023/08/30 10:46:33;;;;;;;;;7.00;3.00;;;;;;;;5065982;28;45244;-78
2023/08/30 10:49:14;;;;;;;;;3.75;3.25;;;;;;;;5066215;28;46263;-77
2023/08/30 10:51:40;;;;;;;;;4.75;4.00;;;;;;;;5078928;28;45273;-76
2023/08/30 10:54:18;;;;;;;;;4.50;4.50;;;;;;;;5060710;28;45461;-77
2023/08/30 10:56:48;;;;;;;;;4.50;4.50;;;;;;;;5079187;28;45383;-77
2023/08/30 10:59:19;;;;;;;;;2.00;2.00;;;;;;;;5079244;28;46033;-78
2023/08/30 11:01:48;;;;;;;;;4.75;4.25;;;;;;;;5061767;28;45378;-78
2023/08/30 11:04:17;;;;;;;;;5.25;5.25;;;;;;;;5061119;28;45291;-81
2023/08/30 11:06:47;;;;;;;;;7.00;6.00;;;;;;;;5071958;28;45439;-79
2023/08/30 11:09:14;;;;;;;;;6.00;4.75;;;;;;;;5052696;28;47612;-78
2023/08/30 11:11:39;;;;;;;;;5.50;5.00;;;;;;;;5070608;28;45569;-76
2023/08/30 11:14:06;;;;;;;;;2.50;2.50;;;;;;;;5072595;28;46562;-77
2023/08/30 11:16:32;;;;;;;;;6.50;4.00;;;;;;;;5073482;28;46222;-77
2023/08/30 11:18:58;;;;;;;;;6.25;5.25;;;;;;;;5074458;28;45450;-76
2023/08/30 11:21:23;;;;;;;;;3.50;3.50;;;;;;;;5072373;28;45440;-77
2023/08/30 11:23:48;;;;;;;;;4.75;4.75;;;;;;;;5074055;28;45532;-75
2023/08/30 11:26:13;;;;;;;;;3.00;3.00;;;;;;;;5054919;28;45991;-78
2023/08/30 11:28:45;;;;;;;;;4.00;3.75;;;;;;;;5053393;27;48575;-78
2023/08/30 11:31:17;;;;;;;;;5.00;4.00;;;;;;;;5069576;28;45572;-77
2023/08/30 11:33:49;;;;;;;;;4.75;4.00;;;;;;;;5056583;28;45934;-75
2023/08/30 11:36:14;;;;;;;;;4.75;4.00;;;;;;;;5071845;28;45829;-78
2023/08/30 11:38:40;;;;;;;;;3.00;3.00;;;;;;;;5072311;28;46151;-76
2023/08/30 11:41:06;;;;;;;;;3.25;2.00;;;;;;;;5074607;28;45911;-79
2023/08/30 11:43:31;;;;;;;;;5.00;5.00;;;;;;;;5065399;27;45290;-77
2023/08/30 11:45:57;;;;;;;;;4.00;4.00;;;;;;;;5069351;27;45749;-77
2023/08/30 11:48:22;;;;;;;;;5.50;5.50;;;;;;;;5074564;27;46245;-75
2023/08/30 11:50:47;;;;;;;;;5.75;4.25;;;;;;;;5052714;28;45798;-77
2023/08/30 11:53:12;;;;;;;;;3.00;3.00;;;;;;;;5071844;27;45352;-76
2023/08/30 11:55:38;;;;;;;;;5.00;4.00;;;;;;;;5074110;27;46056;-75
2023/08/30 11:58:03;;;;;;;;;5.00;4.00;;;;;;;;5071436;28;46311;-76
2023/08/30 12:00:32;;;;;;;;;4.75;4.00;;;;;;;;5073143;28;45434;-76
2023/08/30 12:02:57;;;;;;;;;5.50;4.25;;;;;;;;5056044;28;45853;-78
2023/08/30 12:05:22;;;;;;;;;3.75;3.75;;;;;;;;5053558;28;45885;-76
2023/08/30 12:07:48;;;;;;;;;5.00;3.00;;;;;;;;5073110;28;45652;-77
2023/08/30 12:10:13;;;;;;;;;4.00;4.00;;;;;;;;5074147;28;45612;-75
2023/08/30 12:12:44;;;;;;;;;4.00;4.00;;;;;;;;5073008;28;46403;-76
2023/08/30 12:15:12;;;;;;;;;4.00;4.00;;;;;;;;5071818;28;45758;-74
2023/08/30 12:17:38;;;;;;;;;4.50;4.00;;;;;;;;5073410;28;46173;-75
2023/08/30 12:20:03;;;;;;;;;6.00;5.00;;;;;;;;5055410;28;45486;-75
2023/08/30 12:22:38;;;;;;;;;5.75;5.50;;;;;;;;5072345;28;45881;-77
2023/08/30 12:25:03;;;;;;;;;5.25;4.00;;;;;;;;5052990;28;47471;-81
2023/08/30 12:27:28;;;;;;;;;4.00;4.00;;;;;;;;5074087;28;45516;-76
2023/08/30 12:29:54;;;;;;;;;5.50;5.00;;;;;;;;5072471;27;45754;-76
2023/08/30 12:32:19;;;;;;;;;6.00;5.00;;;;;;;;5053280;28;45521;-76
2023/08/30 12:34:44;;;;;;;;;8.00;6.25;;;;;;;;5073622;28;45454;-77
2023/08/30 12:37:09;;;;;;;;;4.75;3.75;;;;;;;;5051664;28;49292;-74
2023/08/30 12:39:34;;;;;;;;;4.50;4.00;;;;;;;;5073559;28;45571;-76
2023/08/30 12:42:00;;;;;;;;;3.50;3.00;;;;;;;;5055658;28;45655;-77
2023/08/30 12:44:25;;;;;;;;;5.00;4.00;;;;;;;;5052796;28;46270;-77
2023/08/30 12:46:50;;;;;;;;;6.00;5.75;;;;;;;;5054158;28;47863;-76
2023/08/30 12:49:15;;;;;;;;;6.25;5.25;;;;;;;;5073953;28;45463;-78
2023/08/30 12:51:40;;;;;;;;;6.00;6.00;;;;;;;;5053569;28;46098;-77
2023/08/30 12:54:06;;;;;;;;;4.75;4.75;;;;;;;;5073466;28;45528;-76
2023/08/30 12:56:31;;;;;;;;;5.25;5.25;;;;;;;;5072155;28;45741;-75
2023/08/30 12:58:56;;;;;;;;;3.50;3.50;;;;;;;;5071182;28;45572;-77
2023/08/30 13:01:24;;;;;;;;;4.50;3.50;;;;;;;;5055230;28;45414;-77
2023/08/30 13:03:49;;;;;;;;;5.50;5.50;;;;;;;;5055026;28;47225;-78
2023/08/30 13:06:15;;;;;;;;;5.25;5.25;;;;;;;;5051524;28;47194;-76
2023/08/30 13:08:40;;;;;;;;;2.75;1.25;;;;;;;;5054784;28;45338;-77
2023/08/30 13:11:05;;;;;;;;;5.00;5.00;;;;;;;;5054663;28;45547;-76
2023/08/30 13:13:30;;;;;;;;;5.00;5.00;;;;;;;;5052141;28;46429;-75
2023/08/30 13:15:55;;;;;;;;;6.75;6.75;;;;;;;;5072416;28;47181;-75
2023/08/30 13:18:21;;;;;;;;;5.00;4.50;;;;;;;;5054294;28;45486;-75
2023/08/30 13:20:46;;;;;;;;;3.00;2.00;;;;;;;;5052555;28;45553;-75
2023/08/30 13:23:12;;;;;;;;;5.50;5.50;;;;;;;;5072566;28;45532;-76
2023/08/30 13:25:41;;;;;;;;;5.25;5.25;;;;;;;;5070332;28;46089;-77
2023/08/30 13:28:07;;;;;;;;;5.75;5.75;;;;;;;;5071182;28;45475;-79
2023/08/30 13:30:32;;;;;;;;;5.00;5.00;;;;;;;;5072609;28;45335;-77
2023/08/30 13:32:57;;;;;;;;;6.00;6.00;;;;;;;;5073440;28;45750;-78
2023/08/30 13:35:22;;;;;;;;;7.00;6.00;;;;;;;;5051010;28;47053;-75
2023/08/30 13:37:48;;;;;;;;;4.75;4.50;;;;;;;;5054350;28;45843;-82
2023/08/30 13:40:13;;;;;;;;;0.75;0.75;;;;;;;;5074914;28;45283;-78
2023/08/30 13:42:38;;;;;;;;;5.50;5.50;;;;;;;;5052964;28;46329;-76
2023/08/30 13:45:05;;;;;;;;;7.25;6.75;;;;;;;;5053673;28;47366;-77
2023/08/30 13:47:30;;;;;;;;;3.75;3.75;;;;;;;;5056130;28;45468;-78
2023/08/30 13:49:56;;;;;;;;;6.00;6.00;;;;;;;;5070274;28;45636;-77
2023/08/30 13:52:21;;;;;;;;;7.00;5.75;;;;;;;;5072078;28;46275;-76
2023/08/30 13:54:46;;;;;;;;;6.00;5.25;;;;;;;;5072051;28;45604;-78
2023/08/30 13:57:11;;;;;;;;;6.25;6.25;;;;;;;;5070088;28;45883;-78
2023/08/30 13:59:36;;;;;;;;;4.00;4.00;;;;;;;;5072906;28;45459;-79
2023/08/30 14:02:03;;;;;;;;;3.50;2.75;;;;;;;;5072579;28;46758;-79
2023/08/30 14:04:31;;;;;;;;;6.00;6.00;;;;;;;;5069805;28;46513;-79
2023/08/30 14:06:57;;;;;;;;;5.33;5.33;;;;;;;;5070651;28;46389;-77
2023/08/30 14:09:22;;;;;;;;;4.67;4.67;;;;;;;;5072631;28;45424;-76
2023/08/30 14:11:48;;;;;;;;;6.25;5.25;;;;;;;;5051038;28;46026;-80
2023/08/30 14:14:13;;;;;;;;;4.67;4.67;;;;;;;;5071865;28;46519;-76
2023/08/30 14:16:38;;;;;;;;;7.00;6.00;;;;;;;;5071376;28;45376;-76
2023/08/30 14:19:05;;;;;;;;;4.50;4.50;;;;;;;;5051313;28;45461;-76
2023/08/30 14:21:30;;;;;;;;;7.50;6.00;;;;;;;;5071651;28;45541;-77
2023/08/30 14:23:56;;;;;;;;;6.75;6.00;;;;;;;;5053813;28;47310;-76
2023/08/30 14:26:21;;;;;;;;;5.00;5.00;;;;;;;;5069189;28;46405;-77